Time;durP1;ratioP1;P1;durP2;ratioP2;P2;SDS_P1;SDS_P2;PMS_P1;PMS_P2;Temp;Humidity;BMP_temperature;BMP_pressure;BME280_temperature;BME280_humidity;BME280_pressure;Samples;Min_cycle;Max_cycle;Signal;HPM_P1;HPM_P2
2023/07/25 00:01:15;;;;;;;3.45;2.00;;;;;;;18.24;60.82;100616.03;5139269;27;20055;-62
2023/07/25 00:03:43;;;;;;;5.70;1.90;;;;;;;18.25;60.80;100616.84;5140905;27;20040;-62
2023/07/25 00:06:11;;;;;;;7.32;1.60;;;;;;;18.21;60.57;100620.13;5140340;27;20051;-60
2023/07/25 00:08:39;;;;;;;6.45;1.80;;;;;;;18.21;60.58;100617.41;5140904;27;20051;-61
2023/07/25 00:11:13;;;;;;;2.72;1.75;;;;;;;18.20;60.85;100617.66;5136121;27;20492;-61
2023/07/25 00:13:41;;;;;;;5.43;1.83;;;;;;;18.20;60.62;100612.22;5141454;27;20043;-61
2023/07/25 00:16:10;;;;;;;5.75;2.13;;;;;;;18.19;60.70;100621.47;5143386;27;20051;-62
2023/07/25 00:18:38;;;;;;;5.88;1.88;;;;;;;18.19;60.69;100626.91;5140730;27;20138;-62
2023/07/25 00:21:05;;;;;;;6.32;2.25;;;;;;;18.17;60.67;100632.63;5140507;27;20051;-62
2023/07/25 00:23:33;;;;;;;8.82;2.60;;;;;;;18.17;60.66;100621.75;5142966;27;20069;-61
2023/07/25 00:26:01;;;;;;;5.60;2.55;;;;;;;18.16;60.60;100620.13;5142187;27;20107;-61
2023/07/25 00:28:29;;;;;;;4.80;2.08;;;;;;;18.16;60.71;100619.31;5138026;27;20055;-60
2023/07/25 00:30:57;;;;;;;6.13;2.40;;;;;;;18.15;60.66;100617.69;5142149;27;20047;-62
2023/07/25 00:33:26;;;;;;;4.63;1.98;;;;;;;18.13;60.67;100617.97;5138978;27;20047;-61
2023/07/25 00:35:54;;;;;;;7.55;2.10;;;;;;;18.13;60.52;100625.31;5134088;27;20056;-61
2023/07/25 00:38:22;;;;;;;7.65;2.05;;;;;;;18.12;60.47;100618.25;5138982;27;20273;-61
2023/07/25 00:40:49;;;;;;;5.38;2.45;;;;;;;18.10;60.54;100618.53;5139846;27;20092;-61
2023/07/25 00:43:17;;;;;;;6.15;2.08;;;;;;;18.10;60.58;100620.44;5135538;27;20073;-61
2023/07/25 00:45:45;;;;;;;6.90;1.98;;;;;;;18.09;60.61;100616.06;5139321;27;20076;-61
2023/07/25 00:48:13;;;;;;;4.65;1.95;;;;;;;18.05;60.63;100609.56;5140821;27;20489;-61
2023/07/25 00:50:44;;;;;;;7.25;2.10;;;;;;;18.09;60.50;100616.06;5142152;27;20039;-61
2023/07/25 00:53:13;;;;;;;8.00;2.28;;;;;;;18.07;60.62;100615.53;5143478;27;20080;-61
2023/07/25 00:55:42;;;;;;;6.05;2.30;;;;;;;18.06;60.54;100611.19;5142585;27;20051;-62
2023/07/25 00:58:09;;;;;;;6.32;2.10;;;;;;;18.04;60.40;100610.66;5145023;27;20468;-61
2023/07/25 01:00:39;;;;;;;6.40;2.28;;;;;;;18.04;60.44;100618.81;5141239;27;20073;-61
2023/07/25 01:03:07;;;;;;;6.00;2.10;;;;;;;18.02;60.35;100610.13;5136560;27;20043;-62
2023/07/25 01:05:39;;;;;;;7.22;2.30;;;;;;;18.01;60.42;100612.03;5137126;27;20210;-62
2023/07/25 01:08:08;;;;;;;6.68;2.50;;;;;;;18.01;60.40;100605.78;5139321;27;20039;-61
2023/07/25 01:10:38;;;;;;;6.88;2.13;;;;;;;18.00;60.47;100609.59;5139915;27;20047;-61
2023/07/25 01:13:06;;;;;;;5.20;1.90;;;;;;;17.99;60.42;100608.75;5140208;27;20051;-61
2023/07/25 01:15:36;;;;;;;6.95;2.65;;;;;;;17.98;60.42;100593.53;5136361;27;20043;-61
2023/07/25 01:18:04;;;;;;;4.55;2.10;;;;;;;17.96;60.49;100606.59;5139625;27;20126;-61
2023/07/25 01:20:35;;;;;;;5.97;1.50;;;;;;;17.94;60.40;100603.34;5138744;27;20134;-61
2023/07/25 01:23:05;;;;;;;5.78;2.05;;;;;;;17.94;60.64;100608.78;5140408;27;20042;-61
2023/07/25 01:25:34;;;;;;;5.05;2.15;;;;;;;17.94;60.40;100605.25;5139127;27;20097;-61
2023/07/25 01:28:02;;;;;;;8.07;2.38;;;;;;;17.94;60.07;100607.97;5138193;27;20054;-61
2023/07/25 01:30:30;;;;;;;7.60;2.30;;;;;;;17.91;60.13;100598.47;5140954;27;20043;-61
2023/07/25 01:32:58;;;;;;;10.45;2.50;;;;;;;17.91;60.10;100597.66;5140193;28;20039;-61
2023/07/25 01:35:26;;;;;;;6.90;2.30;;;;;;;17.89;60.29;100596.00;5140685;28;20083;-61
2023/07/25 01:37:54;;;;;;;8.32;2.30;;;;;;;17.89;60.18;100595.19;5136949;28;20039;-63
2023/07/25 01:40:22;;;;;;;7.15;2.10;;;;;;;17.88;60.04;100588.94;5141877;28;20372;-61
2023/07/25 01:42:51;;;;;;;5.63;2.03;;;;;;;17.88;60.06;100588.13;5137555;28;20043;-62
2023/07/25 01:45:19;;;;;;;3.63;1.73;;;;;;;17.85;60.07;100589.50;5138655;28;20421;-61
2023/07/25 01:47:47;;;;;;;10.15;2.13;;;;;;;17.85;59.94;100578.63;5135597;28;20050;-60
2023/07/25 01:50:14;;;;;;;6.07;2.42;;;;;;;17.83;59.77;100580.00;5141239;28;20078;-61
2023/07/25 01:52:42;;;;;;;6.05;2.22;;;;;;;17.81;59.95;100584.91;5138819;28;20048;-61
2023/07/25 01:55:10;;;;;;;6.20;2.28;;;;;;;17.80;60.09;100585.97;5139774;28;20077;-61
2023/07/25 01:57:38;;;;;;;5.50;2.33;;;;;;;17.80;59.96;100588.69;5139088;28;20043;-61
2023/07/25 02:00:09;;;;;;;5.40;2.33;;;;;;;17.79;59.83;100584.34;5135138;28;20071;-61
2023/07/25 02:02:36;;;;;;;6.95;2.10;;;;;;;17.78;59.89;100582.72;5136984;28;20084;-61
2023/07/25 02:05:05;;;;;;;8.93;2.67;;;;;;;17.77;59.95;100586.53;5144024;27;20178;-61
2023/07/25 02:07:33;;;;;;;4.45;1.80;;;;;;;17.76;60.00;100582.19;5139567;27;20039;-61
2023/07/25 02:10:01;;;;;;;7.68;2.50;;;;;;;17.75;60.01;100575.13;5138527;27;20051;-62
2023/07/25 02:12:30;;;;;;;4.72;1.92;;;;;;;17.74;60.06;100573.50;5140444;28;20048;-62
2023/07/25 02:14:58;;;;;;;7.25;2.08;;;;;;;17.74;60.06;100573.50;5145627;27;20073;-62
2023/07/25 02:17:27;;;;;;;6.03;2.72;;;;;;;17.73;60.00;100574.59;5135412;28;20088;-62
2023/07/25 02:19:55;;;;;;;11.10;2.75;;;;;;;17.71;60.11;100576.75;5142709;27;20069;-62
2023/07/25 02:22:22;;;;;;;6.53;2.67;;;;;;;17.72;60.08;100576.50;5132506;28;20068;-61
2023/07/25 02:24:50;;;;;;;10.35;2.90;;;;;;;17.71;60.23;100571.31;5142029;27;20043;-62
2023/07/25 02:27:18;;;;;;;6.80;2.08;;;;;;;17.69;60.25;100568.06;5137511;28;20051;-62
2023/07/25 02:29:46;;;;;;;5.03;1.90;;;;;;;17.69;60.26;100568.06;5141714;27;20055;-62
2023/07/25 02:32:14;;;;;;;5.72;2.05;;;;;;;17.69;60.27;100573.50;5142765;27;20050;-62
2023/07/25 02:34:43;;;;;;;9.02;2.97;;;;;;;17.69;60.20;100568.06;5146003;27;20070;-62
2023/07/25 02:37:11;;;;;;;6.55;2.42;;;;;;;17.68;60.37;100569.97;5139723;27;20485;-62
2023/07/25 02:39:39;;;;;;;5.72;2.47;;;;;;;17.68;60.15;100569.16;5144506;27;20043;-62
2023/07/25 02:42:07;;;;;;;13.25;2.25;;;;;;;17.68;60.21;100575.41;5145008;27;20051;-62
2023/07/25 02:44:35;;;;;;;6.97;2.45;;;;;;;17.68;60.47;100574.59;5144914;27;20088;-62
2023/07/25 02:47:03;;;;;;;8.82;2.30;;;;;;;17.66;60.24;100566.72;5141157;27;20063;-62
2023/07/25 02:49:31;;;;;;;5.90;2.47;;;;;;;17.67;60.41;100570.25;5144055;27;20055;-62
2023/07/25 02:52:00;;;;;;;5.25;1.85;;;;;;;17.67;60.51;100572.97;5144173;27;20068;-62
2023/07/25 02:54:27;;;;;;;6.03;2.20;;;;;;;17.65;60.61;100578.66;5142030;27;20076;-62
2023/07/25 02:56:55;;;;;;;6.57;2.10;;;;;;;17.66;60.42;100571.34;5145715;27;20419;-62
2023/07/25 02:59:23;;;;;;;8.30;2.35;;;;;;;17.65;60.59;100569.69;5142205;27;20050;-62
2023/07/25 03:01:51;;;;;;;2.05;1.63;;;;;;;17.63;60.42;100569.94;5142199;27;20105;-61
2023/07/25 03:04:18;;;;;;;5.40;1.77;;;;;;;17.63;60.56;100575.41;5143838;27;20573;-62
2023/07/25 03:06:46;;;;;;;4.57;1.90;;;;;;;17.62;60.43;100576.47;5141908;27;20050;-61
2023/07/25 03:09:15;;;;;;;11.65;2.95;;;;;;;17.61;60.47;100571.31;5143376;27;20108;-62
2023/07/25 03:11:43;;;;;;;6.38;2.30;;;;;;;17.61;60.46;100574.84;5140010;27;20047;-62
2023/07/25 03:14:11;;;;;;;9.48;2.53;;;;;;;17.61;60.12;100565.88;5142012;27;20055;-61
2023/07/25 03:16:39;;;;;;;8.77;3.08;;;;;;;17.60;60.04;100572.41;5143100;27;20089;-61
2023/07/25 03:19:07;;;;;;;4.72;1.70;;;;;;;17.57;60.30;100568.34;5142697;27;20116;-61
2023/07/25 03:21:34;;;;;;;6.07;2.35;;;;;;;17.57;60.45;100557.47;5142732;27;20073;-60
2023/07/25 03:24:02;;;;;;;5.05;2.00;;;;;;;17.55;60.51;100560.47;5141334;27;20043;-61
2023/07/25 03:26:31;;;;;;;8.60;2.50;;;;;;;17.54;60.60;100556.13;5141661;27;20069;-61
2023/07/25 03:28:59;;;;;;;5.88;1.92;;;;;;;17.54;60.51;100564.25;5143262;27;20107;-61
2023/07/25 03:31:27;;;;;;;5.65;2.25;;;;;;;17.54;60.29;100564.25;5140959;27;20056;-61
2023/07/25 03:33:55;;;;;;;4.95;2.05;;;;;;;17.53;60.33;100569.97;5143850;27;20491;-62
2023/07/25 03:36:24;;;;;;;8.23;2.20;;;;;;;17.52;60.44;100561.00;5143164;27;20048;-62
2023/07/25 03:38:52;;;;;;;4.93;1.92;;;;;;;17.51;60.44;100562.09;5146036;27;20051;-62
2023/07/25 03:41:19;;;;;;;6.35;2.38;;;;;;;17.50;60.07;100563.19;5147120;27;20043;-62
2023/07/25 03:43:49;;;;;;;7.25;2.70;;;;;;;17.48;60.08;100556.41;5137386;27;20425;-62
2023/07/25 03:46:16;;;;;;;12.90;3.22;;;;;;;17.48;60.00;100568.09;5145653;27;20077;-62
2023/07/25 03:48:44;;;;;;;5.43;2.28;;;;;;;17.46;59.86;100564.00;5146079;27;20053;-62
2023/07/25 03:51:12;;;;;;;6.00;2.30;;;;;;;17.46;59.99;100577.59;5146384;27;20142;-62
2023/07/25 03:53:40;;;;;;;8.40;2.63;;;;;;;17.45;60.19;100575.97;5140003;27;20046;-62
2023/07/25 03:56:07;;;;;;;7.57;2.78;;;;;;;17.43;60.12;100568.09;5143253;27;20045;-62
2023/07/25 03:58:35;;;;;;;6.95;2.55;;;;;;;17.43;60.13;100568.09;5140375;27;20046;-61
2023/07/25 04:01:04;;;;;;;7.25;2.33;;;;;;;17.43;60.36;100564.56;5139476;27;20047;-62
2023/07/25 04:03:32;;;;;;;6.55;2.40;;;;;;;17.41;60.38;100570.25;5141503;27;20051;-62
2023/07/25 04:06:00;;;;;;;9.43;3.13;;;;;;;17.43;60.05;100567.28;5143664;27;20046;-62
2023/07/25 04:08:28;;;;;;;9.13;2.55;;;;;;;17.41;59.98;100569.44;5140470;27;20489;-62
2023/07/25 04:10:56;;;;;;;9.52;2.70;;;;;;;17.39;59.88;100567.00;5140737;27;20104;-62
2023/07/25 04:13:23;;;;;;;7.32;2.47;;;;;;;17.40;60.02;100562.38;5140689;27;20047;-62
2023/07/25 04:15:51;;;;;;;8.77;3.08;;;;;;;17.39;59.98;100564.28;5141608;27;20043;-62
2023/07/25 04:18:20;;;;;;;5.82;2.03;;;;;;;17.39;60.11;100563.47;5141611;27;20131;-62
2023/07/25 04:20:48;;;;;;;8.43;2.83;;;;;;;17.39;60.05;100572.44;5141092;27;20069;-62
2023/07/25 04:23:16;;;;;;;8.23;2.92;;;;;;;17.38;60.11;100567.28;5145911;27;20110;-62
2023/07/25 04:25:44;;;;;;;8.50;2.67;;;;;;;17.37;60.24;100569.19;5142145;27;20079;-62
2023/07/25 04:28:12;;;;;;;4.95;2.30;;;;;;;17.37;60.45;100560.22;5141004;27;20058;-62
2023/07/25 04:30:40;;;;;;;3.85;2.22;;;;;;;17.37;60.48;100560.22;5142567;27;20427;-62
2023/07/25 04:33:08;;;;;;;4.07;2.00;;;;;;;17.36;60.58;100559.41;5140176;27;20051;-62
2023/07/25 04:35:37;;;;;;;5.20;2.25;;;;;;;17.37;60.45;100562.94;5141861;27;20139;-62
2023/07/25 04:38:04;;;;;;;9.73;2.45;;;;;;;17.35;60.36;100560.50;5140470;27;20103;-62
2023/07/25 04:40:32;;;;;;;8.20;2.80;;;;;;;17.35;60.19;100559.69;5144063;27;20047;-62
2023/07/25 04:43:00;;;;;;;6.43;2.55;;;;;;;17.35;60.24;100560.50;5140047;27;20096;-62
2023/07/25 04:45:28;;;;;;;6.90;2.33;;;;;;;17.35;60.25;100562.41;5141142;27;20058;-60
2023/07/25 04:47:56;;;;;;;6.53;2.30;;;;;;;17.25;60.34;100557.81;5140464;27;20050;-60
2023/07/25 04:50:23;;;;;;;8.27;2.60;;;;;;;17.34;60.18;100564.28;5142385;27;20039;-61
2023/07/25 04:52:52;;;;;;;7.45;2.75;;;;;;;17.33;60.34;100564.59;5142149;27;20043;-61
2023/07/25 04:55:20;;;;;;;4.90;2.35;;;;;;;17.33;60.29;100561.88;5142705;27;20108;-61
2023/07/25 04:57:50;;;;;;;5.35;2.13;;;;;;;17.32;60.20;100557.53;5142476;27;20118;-61
2023/07/25 05:00:18;;;;;;;7.00;2.40;;;;;;;17.31;60.40;100555.91;5141374;27;20068;-60
2023/07/25 05:02:45;;;;;;;5.68;2.70;;;;;;;17.30;60.25;100554.28;5139784;27;20055;-60
2023/07/25 05:05:13;;;;;;;10.75;2.70;;;;;;;17.29;60.38;100564.34;5139242;27;20062;-60
2023/07/25 05:07:41;;;;;;;11.68;2.63;;;;;;;17.26;60.15;100567.59;5139746;27;20055;-62
2023/07/25 05:10:11;;;;;;;9.93;3.15;;;;;;;17.24;60.27;100562.44;5139896;27;20702;-62
2023/07/25 05:12:39;;;;;;;7.70;2.78;;;;;;;17.25;60.19;100571.41;5137437;27;20054;-61
2023/07/25 05:15:08;;;;;;;6.78;3.35;;;;;;;17.25;60.18;100576.84;5137664;27;20080;-61
2023/07/25 05:17:35;;;;;;;4.57;2.28;;;;;;;17.26;60.12;100566.78;5135615;27;20043;-61
2023/07/25 05:20:04;;;;;;;10.77;3.13;;;;;;;17.24;60.39;100572.50;5137382;27;20047;-60
2023/07/25 05:22:32;;;;;;;7.22;2.30;;;;;;;17.25;60.33;100576.84;5140801;27;20043;-60
2023/07/25 05:24:59;;;;;;;10.57;2.88;;;;;;;17.24;60.29;100575.19;5140819;27;20042;-61
2023/07/25 05:27:29;;;;;;;9.02;3.38;;;;;;;17.21;60.27;100576.56;5139190;27;20409;-60
2023/07/25 05:29:56;;;;;;;8.07;2.65;;;;;;;17.20;60.17;100580.38;5139427;27;20523;-61
2023/07/25 05:32:24;;;;;;;7.85;3.17;;;;;;;17.18;60.23;100581.72;5138739;27;20043;-61
2023/07/25 05:34:52;;;;;;;8.95;3.33;;;;;;;17.15;60.26;100584.97;5144373;28;20119;-61
2023/07/25 05:37:20;;;;;;;9.18;2.90;;;;;;;17.14;60.21;100591.50;4429518;27;10000688;-61
2023/07/25 05:39:50;;;;;;;5.78;2.20;;;;;;;17.11;60.05;100592.84;5141644;27;20077;-61
2023/07/25 05:42:18;;;;;;;9.20;3.13;;;;;;;17.12;60.15;100591.78;5143534;27;20062;-61
2023/07/25 05:44:47;;;;;;;8.23;2.45;;;;;;;17.08;60.03;100587.97;5134513;28;20043;-61
2023/07/25 05:47:15;;;;;;;6.65;2.28;;;;;;;17.07;60.22;100596.38;5138303;28;20104;-61
2023/07/25 05:49:43;;;;;;;7.15;2.63;;;;;;;17.07;60.25;100593.66;5136461;28;20047;-62
2023/07/25 05:52:11;;;;;;;8.15;3.33;;;;;;;17.07;60.21;100577.38;5138713;27;20080;-62
2023/07/25 05:54:39;;;;;;;3.97;2.03;;;;;;;17.08;60.29;100587.16;5136526;28;20100;-62
2023/07/25 05:57:07;;;;;;;4.28;2.10;;;;;;;17.09;60.14;100581.44;5142438;28;20069;-62
2023/07/25 05:59:35;;;;;;;10.02;2.50;;;;;;;17.10;60.13;100587.69;5142026;27;20043;-63
2023/07/25 06:02:05;;;;;;;8.32;1.95;;;;;;;17.10;60.20;100587.69;5148754;27;20043;-62
2023/07/25 06:04:32;;;;;;;6.38;2.45;;;;;;;17.09;59.96;100583.34;5135790;27;20780;-62
2023/07/25 06:07:00;;;;;;;8.57;2.70;;;;;;;17.07;59.98;100580.09;5144486;27;20287;-61
2023/07/25 06:09:28;;;;;;;9.85;2.40;;;;;;;17.06;60.03;100582.00;5144881;27;20059;-62
2023/07/25 06:11:56;;;;;;;10.02;3.47;;;;;;;17.05;60.15;100582.25;5145429;27;20058;-62
2023/07/25 06:14:24;;;;;;;5.93;2.55;;;;;;;17.05;60.14;100587.69;5145875;27;20062;-61
2023/07/25 06:16:52;;;;;;;8.80;2.47;;;;;;;17.04;60.21;100589.59;5135848;27;20051;-62
2023/07/25 06:19:21;;;;;;;5.75;2.63;;;;;;;17.04;60.19;100599.66;5150489;27;20070;-62
2023/07/25 06:21:49;;;;;;;8.95;2.38;;;;;;;17.03;60.12;100596.13;5146111;27;20092;-62
2023/07/25 06:24:17;;;;;;;7.65;2.42;;;;;;;17.05;60.30;100595.84;5143408;27;20055;-62
2023/07/25 06:26:45;;;;;;;11.85;2.47;;;;;;;17.05;60.17;100598.56;5146521;27;20066;-61
2023/07/25 06:29:13;;;;;;;7.50;2.67;;;;;;;17.05;60.10;100606.69;5149962;27;20046;-61
2023/07/25 06:31:41;;;;;;;11.23;3.17;;;;;;;17.05;60.14;100598.56;5145657;27;20055;-61
2023/07/25 06:34:09;;;;;;;10.77;2.75;;;;;;;17.04;60.40;100588.78;5145489;27;20039;-61
2023/07/25 06:36:38;;;;;;;5.65;1.92;;;;;;;17.04;60.30;100605.88;5141500;27;20393;-62
2023/07/25 06:39:06;;;;;;;7.90;2.10;;;;;;;17.03;60.43;100604.25;5145028;27;20419;-61
2023/07/25 06:41:33;;;;;;;11.15;2.85;;;;;;;17.03;60.25;100604.25;5144427;27;20051;-62
2023/07/25 06:44:01;;;;;;;7.55;2.83;;;;;;;17.02;60.12;100599.91;5133868;27;20058;-62
2023/07/25 06:46:29;;;;;;;6.85;2.58;;;;;;;17.02;60.16;100596.38;5137904;27;20050;-63
2023/07/25 06:48:57;;;;;;;5.97;2.20;;;;;;;17.03;60.16;100603.44;5142474;27;20043;-64
2023/07/25 06:51:25;;;;;;;7.10;2.00;;;;;;;17.05;60.16;100598.56;5143159;27;20139;-62
2023/07/25 06:53:54;;;;;;;7.68;1.95;;;;;;;17.04;60.20;100595.03;5141821;27;20054;-62
2023/07/25 06:56:22;;;;;;;5.80;2.22;;;;;;;17.08;60.24;100601.53;5135000;27;20370;-64
2023/07/25 06:58:50;;;;;;;6.03;2.00;;;;;;;17.08;60.29;100598.00;5141445;27;20050;-65
2023/07/25 07:01:18;;;;;;;12.98;2.20;;;;;;;17.13;60.25;100614.31;5142925;27;20107;-63
2023/07/25 07:03:45;;;;;;;9.55;2.75;;;;;;;17.13;60.12;100604.25;5141005;27;20043;-63
2023/07/25 07:06:13;;;;;;;8.10;2.45;;;;;;;17.13;60.15;100606.97;5143185;27;20543;-63
2023/07/25 07:08:41;;;;;;;13.07;2.55;;;;;;;17.13;60.29;100611.59;5136829;27;20417;-61
2023/07/25 07:11:10;;;;;;;7.72;2.35;;;;;;;17.12;60.31;100605.34;5140614;27;20047;-60
2023/07/25 07:13:38;;;;;;;9.93;2.65;;;;;;;17.14;60.38;100615.94;5144332;27;20087;-61
2023/07/25 07:16:05;;;;;;;6.65;1.92;;;;;;;17.18;60.50;100617.03;5142146;27;20039;-61
2023/07/25 07:18:33;;;;;;;4.60;1.95;;;;;;;17.20;60.28;100623.00;5139280;27;20047;-61
2023/07/25 07:21:01;;;;;;;7.82;2.47;;;;;;;17.19;60.41;100624.91;5143377;27;20043;-62
2023/07/25 07:23:29;;;;;;;6.07;2.03;;;;;;;17.19;60.29;100624.91;5144407;27;20051;-62
2023/07/25 07:25:57;;;;;;;7.85;1.88;;;;;;;17.20;60.38;100620.28;5145661;27;20289;-62
2023/07/25 07:28:26;;;;;;;14.20;2.45;;;;;;;17.21;60.53;100613.78;5144269;27;20039;-62
2023/07/25 07:30:55;;;;;;;5.55;1.90;;;;;;;17.23;60.45;100619.75;5140868;27;20047;-62
2023/07/25 07:33:25;;;;;;;7.13;2.38;;;;;;;17.24;60.54;100614.03;5144591;27;20119;-62
2023/07/25 07:35:53;;;;;;;13.82;2.97;;;;;;;17.24;60.59;100618.66;5142931;27;20039;-60
2023/07/25 07:38:21;;;;;;;7.07;2.45;;;;;;;17.23;60.63;100623.28;5138050;27;20103;-61
2023/07/25 07:40:48;;;;;;;7.18;2.00;;;;;;;17.24;60.57;100634.97;5142006;27;20069;-60
2023/07/25 07:43:16;;;;;;;6.13;2.00;;;;;;;17.24;60.60;100629.53;5141755;27;20058;-61
2023/07/25 07:45:45;;;;;;;9.88;2.13;;;;;;;17.24;60.76;100635.78;5137736;27;20047;-61
2023/07/25 07:48:13;;;;;;;5.40;1.63;;;;;;;17.24;60.72;100635.78;5133964;27;20047;-61
2023/07/25 07:50:41;;;;;;;5.60;1.85;;;;;;;17.24;60.70;100640.38;5140503;27;20063;-59
2023/07/25 07:53:09;;;;;;;7.43;1.90;;;;;;;17.23;60.77;100630.59;5145266;27;20054;-62
2023/07/25 07:55:36;;;;;;;7.43;2.47;;;;;;;17.18;60.52;100631.41;5141261;27;20062;-62
2023/07/25 07:58:04;;;;;;;6.82;2.03;;;;;;;17.23;60.71;100644.19;5143821;27;20050;-63
2023/07/25 08:00:33;;;;;;;7.22;2.92;;;;;;;17.19;60.57;100640.38;5141311;27;20056;-63
2023/07/25 08:03:02;;;;;;;9.30;2.08;;;;;;;17.20;60.73;100642.81;5134704;27;20043;-63
2023/07/25 08:05:30;;;;;;;9.10;2.80;;;;;;;17.21;60.80;100643.66;5142581;27;20050;-61
2023/07/25 08:07:57;;;;;;;6.47;2.50;;;;;;;17.20;60.75;100645.53;5141767;27;20046;-63
2023/07/25 08:10:25;;;;;;;7.55;2.38;;;;;;;17.20;60.78;100650.97;5137111;27;20055;-62
2023/07/25 08:12:53;;;;;;;6.50;2.72;;;;;;;17.21;60.58;100654.50;5140808;27;20091;-63
2023/07/25 08:15:21;;;;;;;6.18;1.73;;;;;;;17.22;60.74;100651.53;5141207;27;20047;-63
2023/07/25 08:17:49;;;;;;;7.25;2.00;;;;;;;17.22;60.70;100643.38;5137193;27;20107;-63
2023/07/25 08:20:18;;;;;;;7.68;1.88;;;;;;;17.22;60.70;100654.25;5139864;27;20055;-63
2023/07/25 08:22:47;;;;;;;6.82;2.55;;;;;;;17.22;60.57;100656.97;5139070;27;20043;-63
2023/07/25 08:25:15;;;;;;;4.63;2.13;;;;;;;17.21;60.53;100655.31;5139380;27;20047;-62
2023/07/25 08:27:43;;;;;;;12.82;2.25;;;;;;;17.20;60.56;100664.56;5138472;27;20069;-62
2023/07/25 08:30:12;;;;;;;5.10;2.13;;;;;;;17.20;60.40;100656.41;5137489;27;20058;-62
2023/07/25 08:32:40;;;;;;;6.10;1.65;;;;;;;17.21;60.56;100674.34;5136582;27;20082;-62
2023/07/25 08:35:08;;;;;;;4.93;1.67;;;;;;;17.21;60.31;100663.47;5138719;27;20130;-62
2023/07/25 08:37:37;;;;;;;5.65;1.80;;;;;;;17.22;60.57;100667.81;5136371;27;20100;-62
2023/07/25 08:40:06;;;;;;;4.78;1.33;;;;;;;17.23;60.48;100674.88;5137889;27;20139;-61
2023/07/25 08:42:36;;;;;;;8.48;1.65;;;;;;;17.23;60.69;100671.34;5139009;27;20051;-61
2023/07/25 08:45:07;;;;;;;6.38;1.88;;;;;;;17.22;60.76;100675.97;5136440;27;20046;-63
2023/07/25 08:47:40;;;;;;;5.85;1.52;;;;;;;17.19;60.64;100679.22;5138692;27;20424;-63
2023/07/25 08:50:12;;;;;;;5.63;2.45;;;;;;;17.21;60.77;100687.09;5143762;27;20042;-63
2023/07/25 08:52:46;;;;;;;6.35;1.67;;;;;;;17.21;60.65;100689.81;5138599;27;20051;-62
2023/07/25 08:55:14;;;;;;;8.73;1.55;;;;;;;17.22;60.29;100694.16;5138529;27;20047;-62
2023/07/25 08:57:43;;;;;;;7.07;1.83;;;;;;;17.24;60.17;100692.00;5139211;27;20091;-61
2023/07/25 09:00:13;;;;;;;8.25;2.13;;;;;;;17.23;60.08;100684.94;5143840;27;20057;-61
2023/07/25 09:02:41;;;;;;;7.75;1.70;;;;;;;17.23;60.09;100693.91;5138755;27;20142;-59
2023/07/25 09:05:10;;;;;;;5.50;1.75;;;;;;;17.26;59.97;100691.72;5143952;27;20077;-62
2023/07/25 09:07:39;;;;;;;6.20;1.52;;;;;;;17.27;59.98;100688.75;5140793;27;20043;-62
2023/07/25 09:10:11;;;;;;;7.13;1.95;;;;;;;17.28;60.08;100693.09;5133406;27;20039;-62
2023/07/25 09:12:38;;;;;;;8.30;1.58;;;;;;;17.30;59.87;100693.63;5138390;27;20054;-60
2023/07/25 09:15:07;;;;;;;6.90;1.48;;;;;;;17.32;59.82;100686.03;5141914;27;20047;-60
2023/07/25 09:17:35;;;;;;;4.30;1.13;;;;;;;17.34;59.80;100691.97;5141352;27;20047;-60
2023/07/25 09:20:05;;;;;;;7.90;1.98;;;;;;;17.36;59.25;100691.69;5141550;27;20071;-60
2023/07/25 09:22:34;;;;;;;4.78;1.20;;;;;;;17.37;59.63;100690.63;5138362;27;20582;-61
2023/07/25 09:25:09;;;;;;;5.78;1.52;;;;;;;17.38;59.47;100679.47;5140483;27;20055;-61
2023/07/25 09:27:37;;;;;;;5.15;1.58;;;;;;;17.40;59.16;100677.31;5139589;27;20045;-61
2023/07/25 09:30:11;;;;;;;4.82;1.75;;;;;;;17.45;59.23;100680.03;5131801;27;20059;-60
2023/07/25 09:32:39;;;;;;;4.50;1.48;;;;;;;17.45;59.05;100680.03;5135871;27;20096;-62
2023/07/25 09:35:09;;;;;;;6.82;1.02;;;;;;;17.48;59.04;100682.19;5132454;27;20046;-61
2023/07/25 09:37:37;;;;;;;3.90;1.20;;;;;;;17.50;58.83;100682.75;5143552;27;20509;-61
2023/07/25 09:40:10;;;;;;;3.63;1.75;;;;;;;17.53;58.46;100689.53;5136450;28;20047;-63
2023/07/25 09:42:41;;;;;;;6.50;1.60;;;;;;;17.53;58.44;100692.25;5145765;27;20062;-61
2023/07/25 09:45:10;;;;;;;4.38;1.80;;;;;;;17.55;58.42;100690.91;5143911;28;20046;-62
2023/07/25 09:47:38;;;;;;;6.13;2.00;;;;;;;17.56;58.30;100689.81;5140817;27;20123;-62
2023/07/25 09:50:07;;;;;;;4.72;1.25;;;;;;;17.58;58.21;100703.94;5144999;28;20072;-62
2023/07/25 09:52:42;;;;;;;3.13;1.25;;;;;;;17.60;58.29;100686.53;5153625;27;20047;-62
2023/07/25 09:55:11;;;;;;;4.25;1.25;;;;;;;17.61;57.96;100685.47;5138589;28;20044;-62
2023/07/25 09:57:40;;;;;;;5.30;1.33;;;;;;;17.62;58.13;100687.91;5144581;28;20043;-63
2023/07/25 10:00:09;;;;;;;4.90;1.30;;;;;;;17.63;57.58;100684.09;5152250;27;20100;-61
2023/07/25 10:02:38;;;;;;;3.00;1.27;;;;;;;17.66;57.54;100690.94;5137919;28;20058;-62
2023/07/25 10:05:08;;;;;;;3.97;1.33;;;;;;;17.57;57.56;100674.31;5139230;27;20043;-62
2023/07/25 10:07:36;;;;;;;6.85;1.65;;;;;;;17.66;57.72;100686.31;5144289;28;20054;-62
2023/07/25 10:10:04;;;;;;;3.55;1.65;;;;;;;17.68;57.13;100691.47;5144325;27;20070;-62
2023/07/25 10:12:34;;;;;;;5.40;1.50;;;;;;;17.67;57.32;100693.38;5141307;28;20097;-62
2023/07/25 10:15:02;;;;;;;5.20;1.30;;;;;;;17.68;56.85;100696.91;5143927;28;20525;-62
2023/07/25 10:17:29;;;;;;;4.07;1.50;;;;;;;17.67;56.72;100693.38;5143985;28;20384;-61
2023/07/25 10:19:58;;;;;;;3.97;1.45;;;;;;;17.70;56.99;100694.72;5139728;28;20066;-61
2023/07/25 10:22:36;;;;;;;7.35;2.20;;;;;;;17.71;57.01;100685.50;5143243;28;20053;-61
2023/07/25 10:25:10;;;;;;;5.05;1.13;;;;;;;17.72;56.84;100693.38;5136526;27;20120;-62
2023/07/25 10:27:39;;;;;;;3.78;0.90;;;;;;;17.73;56.65;100681.41;5138867;28;20701;-64
2023/07/25 10:30:22;;;;;;;4.80;1.38;;;;;;;17.72;56.53;100682.50;5138938;28;20055;-62
2023/07/25 10:32:52;;;;;;;5.32;1.40;;;;;;;17.77;55.99;100679.78;5137916;28;20050;-61
2023/07/25 10:35:42;;;;;;;9.20;3.17;;;;;;;17.80;56.06;100678.41;5139721;28;20055;-60
2023/07/25 10:38:11;;;;;;;5.75;1.38;;;;;;;17.80;55.53;100684.66;5135663;28;20046;-61
2023/07/25 10:40:56;;;;;;;5.00;0.98;;;;;;;17.82;55.41;100690.66;5136270;27;20081;-61
2023/07/25 10:43:29;;;;;;;4.72;1.33;;;;;;;17.83;55.84;100688.75;5137517;28;20086;-61
2023/07/25 10:46:01;;;;;;;4.25;1.60;;;;;;;17.86;56.54;100693.63;5142998;27;20043;-61
2023/07/25 10:48:36;;;;;;;7.97;1.98;;;;;;;17.88;55.99;100694.97;5136558;28;20106;-61
2023/07/25 10:51:08;;;;;;;5.72;1.40;;;;;;;17.92;56.12;100697.97;5136356;27;20047;-61
2023/07/25 10:53:36;;;;;;;7.03;1.65;;;;;;;17.93;55.95;100694.16;5140102;27;20055;-62
2023/07/25 10:56:15;;;;;;;8.75;2.15;;;;;;;17.95;55.70;100688.44;5147805;27;20042;-62
2023/07/25 10:59:08;;;;;;;5.35;1.60;;;;;;;17.98;55.67;100696.06;5139549;27;20039;-61
2023/07/25 11:01:48;;;;;;;7.20;1.90;;;;;;;18.00;55.73;100678.38;5144765;27;20043;-61
2023/07/25 11:04:27;;;;;;;3.67;1.50;;;;;;;18.02;56.01;100684.34;5148671;27;20051;-61
2023/07/25 11:06:57;;;;;;;4.65;1.35;;;;;;;18.06;55.87;100677.28;5146122;27;20066;-62
2023/07/25 11:09:26;;;;;;;3.65;1.20;;;;;;;18.09;55.84;100682.16;5139500;27;20566;-61
2023/07/25 11:11:55;;;;;;;7.45;1.50;;;;;;;18.13;56.01;100685.16;4786780;27;10000663;-61
2023/07/25 11:14:24;;;;;;;2.50;1.00;;;;;;;18.15;55.12;100688.41;5137479;27;20046;-60
2023/07/25 11:16:53;;;;;;;6.45;1.20;;;;;;;18.12;54.26;100683.53;5143209;27;20066;-61
2023/07/25 11:19:28;;;;;;;5.78;1.55;;;;;;;18.13;54.68;100685.16;5145371;27;20510;-61
2023/07/25 11:21:56;;;;;;;5.68;1.55;;;;;;;18.11;53.96;100693.59;5138781;27;20051;-61
2023/07/25 11:24:24;;;;;;;5.57;1.30;;;;;;;18.09;53.83;100698.47;5149479;27;20073;-62
2023/07/25 11:26:52;;;;;;;3.15;1.20;;;;;;;18.09;53.93;100697.66;5141826;27;20043;-61
2023/07/25 11:29:19;;;;;;;4.45;1.25;;;;;;;18.07;53.27;100697.94;5144949;27;20047;-61
2023/07/25 11:31:50;;;;;;;7.10;1.75;;;;;;;18.06;53.53;100693.59;5145306;27;20072;-61